sensor_id;sensor_type;location;lat;lon;timestamp;P1;durP1;ratioP1;P2;durP2;ratioP2
13303;SDS011;6720;51.958;4.540;2023-06-22T00:01:50;29.73;;;23.20;;
13303;SDS011;6720;51.958;4.540;2023-06-22T00:04:15;28.20;;;22.27;;
13303;SDS011;6720;51.958;4.540;2023-06-22T00:06:41;30.00;;;23.90;;
13303;SDS011;6720;51.958;4.540;2023-06-22T00:09:06;29.87;;;23.67;;
13303;SDS011;6720;51.958;4.540;2023-06-22T00:11:32;28.10;;;23.20;;
13303;SDS011;6720;51.958;4.540;2023-06-22T00:14:01;33.07;;;24.53;;
13303;SDS011;6720;51.958;4.540;2023-06-22T00:16:26;30.73;;;25.97;;
13303;SDS011;6720;51.958;4.540;2023-06-22T00:18:52;33.50;;;25.67;;
13303;SDS011;6720;51.958;4.540;2023-06-22T00:21:17;31.30;;;25.40;;
13303;SDS011;6720;51.958;4.540;2023-06-22T00:23:45;30.50;;;25.20;;
13303;SDS011;6720;51.958;4.540;2023-06-22T00:26:10;31.67;;;26.20;;
13303;SDS011;6720;51.958;4.540;2023-06-22T00:28:36;36.50;;;28.50;;
13303;SDS011;6720;51.958;4.540;2023-06-22T00:31:02;33.73;;;26.73;;
13303;SDS011;6720;51.958;4.540;2023-06-22T00:33:27;33.40;;;26.13;;
13303;SDS011;6720;51.958;4.540;2023-06-22T00:35:53;35.17;;;27.30;;
13303;SDS011;6720;51.958;4.540;2023-06-22T00:38:19;34.60;;;27.50;;
13303;SDS011;6720;51.958;4.540;2023-06-22T00:40:44;36.80;;;27.93;;
13303;SDS011;6720;51.958;4.540;2023-06-22T00:43:10;36.40;;;28.37;;
13303;SDS011;6720;51.958;4.540;2023-06-22T00:45:35;37.93;;;28.70;;
13303;SDS011;6720;51.958;4.540;2023-06-22T00:48:01;40.60;;;31.27;;
13303;SDS011;6720;51.958;4.540;2023-06-22T00:50:31;39.77;;;30.77;;
13303;SDS011;6720;51.958;4.540;2023-06-22T00:53:00;40.97;;;30.07;;
13303;SDS011;6720;51.958;4.540;2023-06-22T00:55:33;40.70;;;30.50;;
13303;SDS011;6720;51.958;4.540;2023-06-22T00:58:03;44.20;;;31.87;;
13303;SDS011;6720;51.958;4.540;2023-06-22T01:00:33;41.70;;;30.20;;
13303;SDS011;6720;51.958;4.540;2023-06-22T01:02:58;45.70;;;32.50;;
13303;SDS011;6720;51.958;4.540;2023-06-22T01:05:24;44.67;;;32.17;;
13303;SDS011;6720;51.958;4.540;2023-06-22T01:11:05;42.13;;;32.33;;
13303;SDS011;6720;51.958;4.540;2023-06-22T01:16:15;46.30;;;33.00;;
13303;SDS011;6720;51.958;4.540;2023-06-22T01:18:45;51.03;;;34.63;;
13303;SDS011;6720;51.958;4.540;2023-06-22T01:21:15;46.07;;;32.43;;
13303;SDS011;6720;51.958;4.540;2023-06-22T01:29:57;48.73;;;34.10;;
13303;SDS011;6720;51.958;4.540;2023-06-22T01:32:27;47.40;;;34.40;;
13303;SDS011;6720;51.958;4.540;2023-06-22T01:34:55;47.10;;;34.47;;
13303;SDS011;6720;51.958;4.540;2023-06-22T01:37:22;50.03;;;34.63;;
13303;SDS011;6720;51.958;4.540;2023-06-22T01:39:48;44.67;;;33.27;;
13303;SDS011;6720;51.958;4.540;2023-06-22T01:42:14;46.90;;;35.73;;
13303;SDS011;6720;51.958;4.540;2023-06-22T01:44:41;47.83;;;33.70;;
13303;SDS011;6720;51.958;4.540;2023-06-22T01:47:06;48.20;;;33.77;;
13303;SDS011;6720;51.958;4.540;2023-06-22T01:49:32;49.63;;;33.57;;
13303;SDS011;6720;51.958;4.540;2023-06-22T01:51:58;49.33;;;34.50;;
13303;SDS011;6720;51.958;4.540;2023-06-22T01:54:23;50.53;;;34.83;;
13303;SDS011;6720;51.958;4.540;2023-06-22T01:56:49;44.90;;;33.57;;
13303;SDS011;6720;51.958;4.540;2023-06-22T01:59:20;46.17;;;32.43;;
13303;SDS011;6720;51.958;4.540;2023-06-22T02:01:54;47.90;;;33.47;;
13303;SDS011;6720;51.958;4.540;2023-06-22T02:04:37;47.57;;;33.53;;
13303;SDS011;6720;51.958;4.540;2023-06-22T02:07:11;48.63;;;34.43;;
13303;SDS011;6720;51.958;4.540;2023-06-22T02:09:39;45.47;;;33.83;;
13303;SDS011;6720;51.958;4.540;2023-06-22T02:12:10;45.77;;;34.87;;
13303;SDS011;6720;51.958;4.540;2023-06-22T02:14:37;50.47;;;35.67;;
13303;SDS011;6720;51.958;4.540;2023-06-22T02:17:04;50.90;;;34.67;;
13303;SDS011;6720;51.958;4.540;2023-06-22T02:19:36;51.50;;;35.70;;
13303;SDS011;6720;51.958;4.540;2023-06-22T02:22:04;50.67;;;35.90;;
13303;SDS011;6720;51.958;4.540;2023-06-22T02:24:30;55.23;;;36.73;;
13303;SDS011;6720;51.958;4.540;2023-06-22T02:26:58;46.87;;;36.23;;
13303;SDS011;6720;51.958;4.540;2023-06-22T02:29:25;53.87;;;37.50;;
13303;SDS011;6720;51.958;4.540;2023-06-22T02:31:51;53.20;;;38.33;;
13303;SDS011;6720;51.958;4.540;2023-06-22T02:34:17;56.90;;;39.00;;
13303;SDS011;6720;51.958;4.540;2023-06-22T02:36:46;58.70;;;40.20;;
13303;SDS011;6720;51.958;4.540;2023-06-22T02:41:45;61.50;;;41.33;;
13303;SDS011;6720;51.958;4.540;2023-06-22T02:44:11;63.33;;;41.70;;
13303;SDS011;6720;51.958;4.540;2023-06-22T02:46:36;57.00;;;40.00;;
13303;SDS011;6720;51.958;4.540;2023-06-22T02:49:02;58.93;;;40.83;;
13303;SDS011;6720;51.958;4.540;2023-06-22T02:51:27;58.60;;;41.00;;
13303;SDS011;6720;51.958;4.540;2023-06-22T02:53:53;67.13;;;44.43;;
13303;SDS011;6720;51.958;4.540;2023-06-22T02:56:22;64.77;;;42.17;;
13303;SDS011;6720;51.958;4.540;2023-06-22T02:58:50;61.37;;;42.53;;
13303;SDS011;6720;51.958;4.540;2023-06-22T03:01:16;57.23;;;41.03;;
13303;SDS011;6720;51.958;4.540;2023-06-22T03:03:41;63.30;;;43.57;;
13303;SDS011;6720;51.958;4.540;2023-06-22T03:06:07;62.63;;;41.03;;
13303;SDS011;6720;51.958;4.540;2023-06-22T03:08:32;62.03;;;41.13;;
13303;SDS011;6720;51.958;4.540;2023-06-22T03:10:57;58.63;;;41.57;;
13303;SDS011;6720;51.958;4.540;2023-06-22T03:13:23;65.37;;;42.87;;
13303;SDS011;6720;51.958;4.540;2023-06-22T03:15:49;59.57;;;41.10;;
13303;SDS011;6720;51.958;4.540;2023-06-22T03:18:14;67.00;;;44.40;;
13303;SDS011;6720;51.958;4.540;2023-06-22T03:20:40;67.47;;;45.30;;
13303;SDS011;6720;51.958;4.540;2023-06-22T03:23:06;66.63;;;44.00;;
13303;SDS011;6720;51.958;4.540;2023-06-22T03:25:31;64.90;;;42.60;;
13303;SDS011;6720;51.958;4.540;2023-06-22T03:27:58;72.37;;;43.37;;
13303;SDS011;6720;51.958;4.540;2023-06-22T03:30:24;66.23;;;43.97;;
13303;SDS011;6720;51.958;4.540;2023-06-22T03:32:49;68.63;;;45.03;;
13303;SDS011;6720;51.958;4.540;2023-06-22T03:35:15;74.60;;;46.00;;
13303;SDS011;6720;51.958;4.540;2023-06-22T03:37:40;66.80;;;44.77;;
13303;SDS011;6720;51.958;4.540;2023-06-22T03:40:06;71.53;;;45.43;;
13303;SDS011;6720;51.958;4.540;2023-06-22T03:42:35;72.17;;;45.27;;
13303;SDS011;6720;51.958;4.540;2023-06-22T03:45:01;72.07;;;44.90;;
13303;SDS011;6720;51.958;4.540;2023-06-22T03:47:26;66.50;;;43.20;;
13303;SDS011;6720;51.958;4.540;2023-06-22T03:49:52;70.37;;;44.00;;
13303;SDS011;6720;51.958;4.540;2023-06-22T03:52:20;64.00;;;43.13;;
13303;SDS011;6720;51.958;4.540;2023-06-22T03:54:47;68.73;;;44.13;;
13303;SDS011;6720;51.958;4.540;2023-06-22T03:57:12;65.10;;;43.93;;
13303;SDS011;6720;51.958;4.540;2023-06-22T03:59:38;64.83;;;43.20;;
13303;SDS011;6720;51.958;4.540;2023-06-22T04:02:03;66.23;;;43.60;;
13303;SDS011;6720;51.958;4.540;2023-06-22T04:04:29;70.33;;;43.93;;
13303;SDS011;6720;51.958;4.540;2023-06-22T04:06:54;67.00;;;44.13;;
13303;SDS011;6720;51.958;4.540;2023-06-22T04:09:20;65.33;;;42.63;;
13303;SDS011;6720;51.958;4.540;2023-06-22T04:11:46;66.67;;;44.07;;
13303;SDS011;6720;51.958;4.540;2023-06-22T04:14:12;64.60;;;44.00;;
13303;SDS011;6720;51.958;4.540;2023-06-22T04:16:37;68.63;;;44.83;;
13303;SDS011;6720;51.958;4.540;2023-06-22T04:19:03;65.27;;;43.60;;
13303;SDS011;6720;51.958;4.540;2023-06-22T04:21:28;66.80;;;44.07;;
13303;SDS011;6720;51.958;4.540;2023-06-22T04:23:54;62.43;;;42.97;;
13303;SDS011;6720;51.958;4.540;2023-06-22T04:26:19;63.40;;;42.70;;
13303;SDS011;6720;51.958;4.540;2023-06-22T04:28:46;62.60;;;41.73;;
13303;SDS011;6720;51.958;4.540;2023-06-22T04:31:16;65.83;;;45.53;;
13303;SDS011;6720;51.958;4.540;2023-06-22T04:33:43;66.83;;;45.17;;
13303;SDS011;6720;51.958;4.540;2023-06-22T04:36:09;67.77;;;44.20;;
13303;SDS011;6720;51.958;4.540;2023-06-22T04:38:38;63.93;;;44.23;;
13303;SDS011;6720;51.958;4.540;2023-06-22T04:41:04;64.40;;;45.23;;
13303;SDS011;6720;51.958;4.540;2023-06-22T04:43:29;67.10;;;43.87;;
13303;SDS011;6720;51.958;4.540;2023-06-22T04:45:55;66.17;;;45.13;;
13303;SDS011;6720;51.958;4.540;2023-06-22T04:48:28;66.10;;;46.23;;
13303;SDS011;6720;51.958;4.540;2023-06-22T04:50:57;69.80;;;46.00;;
13303;SDS011;6720;51.958;4.540;2023-06-22T04:53:27;63.50;;;45.57;;
13303;SDS011;6720;51.958;4.540;2023-06-22T04:55:54;63.73;;;47.03;;
13303;SDS011;6720;51.958;4.540;2023-06-22T04:58:20;62.03;;;45.33;;
13303;SDS011;6720;51.958;4.540;2023-06-22T05:00:46;62.40;;;44.73;;
13303;SDS011;6720;51.958;4.540;2023-06-22T05:03:12;67.43;;;47.13;;
13303;SDS011;6720;51.958;4.540;2023-06-22T05:05:37;61.73;;;45.07;;
13303;SDS011;6720;51.958;4.540;2023-06-22T05:08:03;57.70;;;44.10;;
13303;SDS011;6720;51.958;4.540;2023-06-22T05:10:31;66.20;;;44.50;;
13303;SDS011;6720;51.958;4.540;2023-06-22T05:12:57;58.20;;;42.53;;
13303;SDS011;6720;51.958;4.540;2023-06-22T05:15:23;57.57;;;45.23;;
13303;SDS011;6720;51.958;4.540;2023-06-22T05:17:53;60.70;;;44.20;;
13303;SDS011;6720;51.958;4.540;2023-06-22T05:20:18;58.00;;;43.97;;
13303;SDS011;6720;51.958;4.540;2023-06-22T05:22:44;57.77;;;41.97;;
13303;SDS011;6720;51.958;4.540;2023-06-22T05:25:10;56.50;;;42.47;;
13303;SDS011;6720;51.958;4.540;2023-06-22T05:27:36;55.73;;;44.93;;
13303;SDS011;6720;51.958;4.540;2023-06-22T05:30:06;51.20;;;40.13;;
13303;SDS011;6720;51.958;4.540;2023-06-22T05:32:32;46.50;;;37.77;;
13303;SDS011;6720;51.958;4.540;2023-06-22T05:34:58;48.57;;;38.17;;
13303;SDS011;6720;51.958;4.540;2023-06-22T05:37:24;47.87;;;37.63;;
13303;SDS011;6720;51.958;4.540;2023-06-22T05:39:49;51.23;;;38.93;;
13303;SDS011;6720;51.958;4.540;2023-06-22T05:42:15;47.37;;;37.43;;
13303;SDS011;6720;51.958;4.540;2023-06-22T05:44:40;47.73;;;36.63;;
13303;SDS011;6720;51.958;4.540;2023-06-22T05:47:06;46.83;;;37.70;;
13303;SDS011;6720;51.958;4.540;2023-06-22T05:49:31;41.83;;;35.27;;
13303;SDS011;6720;51.958;4.540;2023-06-22T05:51:58;47.37;;;36.70;;
13303;SDS011;6720;51.958;4.540;2023-06-22T05:54:24;43.50;;;35.93;;
13303;SDS011;6720;51.958;4.540;2023-06-22T05:56:50;41.13;;;34.13;;
13303;SDS011;6720;51.958;4.540;2023-06-22T05:59:16;35.23;;;31.47;;
13303;SDS011;6720;51.958;4.540;2023-06-22T06:01:41;38.03;;;32.07;;
13303;SDS011;6720;51.958;4.540;2023-06-22T06:04:06;39.00;;;31.83;;
13303;SDS011;6720;51.958;4.540;2023-06-22T06:06:35;37.13;;;32.10;;
13303;SDS011;6720;51.958;4.540;2023-06-22T06:09:05;40.90;;;35.20;;
13303;SDS011;6720;51.958;4.540;2023-06-22T06:11:30;38.23;;;30.17;;
13303;SDS011;6720;51.958;4.540;2023-06-22T06:13:56;36.33;;;30.63;;
13303;SDS011;6720;51.958;4.540;2023-06-22T06:16:22;38.00;;;29.97;;
13303;SDS011;6720;51.958;4.540;2023-06-22T06:18:47;32.43;;;26.87;;
13303;SDS011;6720;51.958;4.540;2023-06-22T06:21:16;31.30;;;27.93;;
13303;SDS011;6720;51.958;4.540;2023-06-22T06:23:41;31.97;;;28.50;;
13303;SDS011;6720;51.958;4.540;2023-06-22T06:26:07;31.53;;;28.07;;
13303;SDS011;6720;51.958;4.540;2023-06-22T06:28:34;31.03;;;27.77;;
13303;SDS011;6720;51.958;4.540;2023-06-22T06:31:00;33.30;;;29.13;;
13303;SDS011;6720;51.958;4.540;2023-06-22T06:33:25;30.37;;;26.97;;
13303;SDS011;6720;51.958;4.540;2023-06-22T06:35:50;29.13;;;26.03;;
13303;SDS011;6720;51.958;4.540;2023-06-22T06:38:16;32.53;;;28.07;;
13303;SDS011;6720;51.958;4.540;2023-06-22T06:40:41;40.17;;;34.43;;
13303;SDS011;6720;51.958;4.540;2023-06-22T06:43:10;36.03;;;30.20;;
13303;SDS011;6720;51.958;4.540;2023-06-22T06:45:40;30.00;;;26.60;;
13303;SDS011;6720;51.958;4.540;2023-06-22T06:48:06;29.30;;;26.03;;
13303;SDS011;6720;51.958;4.540;2023-06-22T06:50:31;30.90;;;27.47;;
13303;SDS011;6720;51.958;4.540;2023-06-22T06:53:07;29.97;;;26.80;;
13303;SDS011;6720;51.958;4.540;2023-06-22T06:55:49;32.93;;;29.53;;
13303;SDS011;6720;51.958;4.540;2023-06-22T06:58:14;30.07;;;26.80;;
13303;SDS011;6720;51.958;4.540;2023-06-22T07:00:46;28.77;;;25.73;;
13303;SDS011;6720;51.958;4.540;2023-06-22T07:03:35;27.83;;;24.87;;
13303;SDS011;6720;51.958;4.540;2023-06-22T07:06:01;37.40;;;33.43;;
13303;SDS011;6720;51.958;4.540;2023-06-22T07:08:26;28.53;;;25.43;;
13303;SDS011;6720;51.958;4.540;2023-06-22T07:10:52;27.27;;;24.30;;
13303;SDS011;6720;51.958;4.540;2023-06-22T07:13:17;26.93;;;24.03;;
13303;SDS011;6720;51.958;4.540;2023-06-22T07:15:43;33.57;;;29.93;;
13303;SDS011;6720;51.958;4.540;2023-06-22T07:18:08;27.37;;;24.33;;
13303;SDS011;6720;51.958;4.540;2023-06-22T07:20:34;22.80;;;20.53;;
13303;SDS011;6720;51.958;4.540;2023-06-22T07:22:59;23.90;;;20.63;;
13303;SDS011;6720;51.958;4.540;2023-06-22T07:25:25;23.33;;;20.83;;
13303;SDS011;6720;51.958;4.540;2023-06-22T07:27:58;20.20;;;18.13;;
13303;SDS011;6720;51.958;4.540;2023-06-22T07:30:24;19.77;;;17.77;;
13303;SDS011;6720;51.958;4.540;2023-06-22T07:32:49;24.77;;;22.10;;
13303;SDS011;6720;51.958;4.540;2023-06-22T07:35:15;25.07;;;22.77;;
13303;SDS011;6720;51.958;4.540;2023-06-22T07:37:41;22.60;;;20.37;;
13303;SDS011;6720;51.958;4.540;2023-06-22T07:40:07;19.87;;;17.87;;
13303;SDS011;6720;51.958;4.540;2023-06-22T07:42:33;20.20;;;18.17;;
13303;SDS011;6720;51.958;4.540;2023-06-22T07:44:59;21.90;;;19.57;;
13303;SDS011;6720;51.958;4.540;2023-06-22T07:47:24;23.97;;;21.57;;
13303;SDS011;6720;51.958;4.540;2023-06-22T07:49:53;15.67;;;13.13;;
13303;SDS011;6720;51.958;4.540;2023-06-22T07:52:20;16.27;;;14.57;;
13303;SDS011;6720;51.958;4.540;2023-06-22T07:54:46;12.50;;;11.23;;
13303;SDS011;6720;51.958;4.540;2023-06-22T07:57:11;11.90;;;10.73;;
13303;SDS011;6720;51.958;4.540;2023-06-22T07:59:37;11.63;;;10.17;;
13303;SDS011;6720;51.958;4.540;2023-06-22T08:02:03;16.77;;;15.03;;
13303;SDS011;6720;51.958;4.540;2023-06-22T08:04:29;17.40;;;15.77;;
13303;SDS011;6720;51.958;4.540;2023-06-22T08:06:56;16.03;;;14.40;;
13303;SDS011;6720;51.958;4.540;2023-06-22T08:09:22;11.83;;;10.57;;
13303;SDS011;6720;51.958;4.540;2023-06-22T08:11:47;8.80;;;7.77;;
13303;SDS011;6720;51.958;4.540;2023-06-22T08:14:14;16.87;;;15.17;;
13303;SDS011;6720;51.958;4.540;2023-06-22T08:16:40;14.00;;;12.80;;
13303;SDS011;6720;51.958;4.540;2023-06-22T08:19:06;13.30;;;11.97;;
13303;SDS011;6720;51.958;4.540;2023-06-22T08:21:32;10.87;;;9.77;;
13303;SDS011;6720;51.958;4.540;2023-06-22T08:23:57;7.53;;;6.13;;
13303;SDS011;6720;51.958;4.540;2023-06-22T08:26:23;16.47;;;14.83;;
13303;SDS011;6720;51.958;4.540;2023-06-22T08:28:48;9.83;;;8.90;;
13303;SDS011;6720;51.958;4.540;2023-06-22T08:31:14;7.17;;;6.23;;
13303;SDS011;6720;51.958;4.540;2023-06-22T08:33:39;12.27;;;10.97;;
13303;SDS011;6720;51.958;4.540;2023-06-22T08:36:05;8.87;;;8.00;;
13303;SDS011;6720;51.958;4.540;2023-06-22T08:38:33;8.63;;;7.43;;
13303;SDS011;6720;51.958;4.540;2023-06-22T08:40:58;7.40;;;6.57;;
13303;SDS011;6720;51.958;4.540;2023-06-22T08:43:28;8.27;;;7.40;;
13303;SDS011;6720;51.958;4.540;2023-06-22T08:45:55;11.87;;;10.67;;
13303;SDS011;6720;51.958;4.540;2023-06-22T08:48:20;11.87;;;10.60;;
13303;SDS011;6720;51.958;4.540;2023-06-22T08:50:46;15.63;;;14.03;;
13303;SDS011;6720;51.958;4.540;2023-06-22T08:53:11;14.27;;;12.77;;
13303;SDS011;6720;51.958;4.540;2023-06-22T08:55:37;13.80;;;11.77;;
13303;SDS011;6720;51.958;4.540;2023-06-22T08:58:02;18.60;;;16.70;;
13303;SDS011;6720;51.958;4.540;2023-06-22T09:00:28;16.50;;;14.90;;
13303;SDS011;6720;51.958;4.540;2023-06-22T09:02:57;16.67;;;14.90;;
13303;SDS011;6720;51.958;4.540;2023-06-22T09:05:24;16.00;;;14.43;;
13303;SDS011;6720;51.958;4.540;2023-06-22T09:07:51;15.00;;;13.57;;
13303;SDS011;6720;51.958;4.540;2023-06-22T09:10:16;18.00;;;14.20;;
13303;SDS011;6720;51.958;4.540;2023-06-22T09:12:43;20.13;;;18.23;;
13303;SDS011;6720;51.958;4.540;2023-06-22T09:15:09;14.83;;;13.33;;
13303;SDS011;6720;51.958;4.540;2023-06-22T09:17:35;14.57;;;13.07;;
13303;SDS011;6720;51.958;4.540;2023-06-22T09:20:01;17.77;;;15.93;;
13303;SDS011;6720;51.958;4.540;2023-06-22T09:22:30;20.67;;;18.57;;
13303;SDS011;6720;51.958;4.540;2023-06-22T09:24:56;19.23;;;17.33;;
13303;SDS011;6720;51.958;4.540;2023-06-22T09:27:22;21.00;;;19.00;;
13303;SDS011;6720;51.958;4.540;2023-06-22T09:29:47;20.87;;;18.77;;
13303;SDS011;6720;51.958;4.540;2023-06-22T09:32:13;17.43;;;15.83;;
13303;SDS011;6720;51.958;4.540;2023-06-22T09:34:39;18.40;;;15.93;;
13303;SDS011;6720;51.958;4.540;2023-06-22T09:37:04;19.90;;;17.90;;
13303;SDS011;6720;51.958;4.540;2023-06-22T09:39:30;18.33;;;16.37;;
13303;SDS011;6720;51.958;4.540;2023-06-22T09:41:57;19.40;;;17.50;;
13303;SDS011;6720;51.958;4.540;2023-06-22T09:44:25;18.10;;;16.30;;
13303;SDS011;6720;51.958;4.540;2023-06-22T09:46:51;19.90;;;17.87;;
13303;SDS011;6720;51.958;4.540;2023-06-22T09:49:17;19.57;;;17.77;;
13303;SDS011;6720;51.958;4.540;2023-06-22T09:51:42;21.07;;;18.97;;
13303;SDS011;6720;51.958;4.540;2023-06-22T09:54:08;20.30;;;18.30;;
13303;SDS011;6720;51.958;4.540;2023-06-22T09:56:33;19.77;;;17.67;;
13303;SDS011;6720;51.958;4.540;2023-06-22T09:58:59;18.87;;;17.07;;
13303;SDS011;6720;51.958;4.540;2023-06-22T10:01:24;18.93;;;17.00;;
13303;SDS011;6720;51.958;4.540;2023-06-22T10:03:53;16.47;;;14.80;;
13303;SDS011;6720;51.958;4.540;2023-06-22T10:06:21;16.37;;;13.77;;
13303;SDS011;6720;51.958;4.540;2023-06-22T10:08:47;15.00;;;13.60;;
13303;SDS011;6720;51.958;4.540;2023-06-22T10:11:13;16.47;;;14.73;;
13303;SDS011;6720;51.958;4.540;2023-06-22T10:13:39;15.57;;;13.90;;
13303;SDS011;6720;51.958;4.540;2023-06-22T10:16:04;16.20;;;13.00;;
13303;SDS011;6720;51.958;4.540;2023-06-22T10:18:30;12.43;;;11.13;;
13303;SDS011;6720;51.958;4.540;2023-06-22T10:20:55;11.87;;;10.77;;
13303;SDS011;6720;51.958;4.540;2023-06-22T10:23:21;13.53;;;11.27;;
13303;SDS011;6720;51.958;4.540;2023-06-22T10:25:47;11.63;;;10.43;;
13303;SDS011;6720;51.958;4.540;2023-06-22T10:28:13;12.47;;;11.17;;
13303;SDS011;6720;51.958;4.540;2023-06-22T10:30:39;13.83;;;12.43;;
13303;SDS011;6720;51.958;4.540;2023-06-22T10:33:09;14.07;;;12.67;;
13303;SDS011;6720;51.958;4.540;2023-06-22T10:35:35;14.20;;;12.10;;
13303;SDS011;6720;51.958;4.540;2023-06-22T10:38:02;14.77;;;12.93;;
13303;SDS011;6720;51.958;4.540;2023-06-22T10:40:28;15.73;;;13.87;;
13303;SDS011;6720;51.958;4.540;2023-06-22T10:42:54;14.53;;;13.10;;
13303;SDS011;6720;51.958;4.540;2023-06-22T10:45:19;15.13;;;12.57;;
13303;SDS011;6720;51.958;4.540;2023-06-22T10:47:45;13.30;;;11.93;;
13303;SDS011;6720;51.958;4.540;2023-06-22T10:50:10;15.47;;;14.03;;
13303;SDS011;6720;51.958;4.540;2023-06-22T10:52:36;17.40;;;15.50;;
13303;SDS011;6720;51.958;4.540;2023-06-22T10:55:02;16.50;;;14.80;;
13303;SDS011;6720;51.958;4.540;2023-06-22T10:57:28;16.10;;;14.37;;
13303;SDS011;6720;51.958;4.540;2023-06-22T10:59:53;16.90;;;14.77;;
13303;SDS011;6720;51.958;4.540;2023-06-22T11:02:19;17.77;;;16.03;;
13303;SDS011;6720;51.958;4.540;2023-06-22T11:04:44;16.67;;;15.03;;
13303;SDS011;6720;51.958;4.540;2023-06-22T11:07:13;21.67;;;19.47;;
13303;SDS011;6720;51.958;4.540;2023-06-22T11:09:38;20.70;;;18.77;;
13303;SDS011;6720;51.958;4.540;2023-06-22T11:12:04;20.87;;;18.77;;
13303;SDS011;6720;51.958;4.540;2023-06-22T11:14:31;19.43;;;17.73;;
13303;SDS011;6720;51.958;4.540;2023-06-22T11:16:58;20.57;;;18.67;;
13303;SDS011;6720;51.958;4.540;2023-06-22T11:19:24;19.67;;;17.97;;
13303;SDS011;6720;51.958;4.540;2023-06-22T11:21:49;21.37;;;19.37;;
13303;SDS011;6720;51.958;4.540;2023-06-22T11:24:15;19.97;;;18.17;;
13303;SDS011;6720;51.958;4.540;2023-06-22T11:26:41;21.03;;;19.13;;
13303;SDS011;6720;51.958;4.540;2023-06-22T11:29:07;21.57;;;19.47;;
13303;SDS011;6720;51.958;4.540;2023-06-22T11:31:33;21.80;;;19.80;;
13303;SDS011;6720;51.958;4.540;2023-06-22T11:33:59;21.43;;;19.33;;
13303;SDS011;6720;51.958;4.540;2023-06-22T11:36:25;20.83;;;18.93;;
13303;SDS011;6720;51.958;4.540;2023-06-22T11:38:51;22.13;;;20.07;;
13303;SDS011;6720;51.958;4.540;2023-06-22T11:41:16;21.40;;;19.30;;
13303;SDS011;6720;51.958;4.540;2023-06-22T11:43:42;21.20;;;19.30;;
13303;SDS011;6720;51.958;4.540;2023-06-22T11:46:07;20.80;;;18.67;;
13303;SDS011;6720;51.958;4.540;2023-06-22T11:48:33;20.87;;;18.90;;
13303;SDS011;6720;51.958;4.540;2023-06-22T11:50:58;18.87;;;17.10;;
13303;SDS011;6720;51.958;4.540;2023-06-22T11:53:24;21.30;;;19.40;;
13303;SDS011;6720;51.958;4.540;2023-06-22T11:55:51;20.37;;;18.37;;
13303;SDS011;6720;51.958;4.540;2023-06-22T11:58:19;20.70;;;18.67;;
13303;SDS011;6720;51.958;4.540;2023-06-22T12:00:44;18.50;;;16.60;;
13303;SDS011;6720;51.958;4.540;2023-06-22T12:03:10;17.50;;;15.93;;
13303;SDS011;6720;51.958;4.540;2023-06-22T12:05:36;18.37;;;16.47;;
13303;SDS011;6720;51.958;4.540;2023-06-22T12:08:03;18.37;;;16.67;;
13303;SDS011;6720;51.958;4.540;2023-06-22T12:10:28;17.13;;;15.43;;
13303;SDS011;6720;51.958;4.540;2023-06-22T12:12:54;18.33;;;16.63;;
13303;SDS011;6720;51.958;4.540;2023-06-22T12:15:19;18.67;;;16.73;;
13303;SDS011;6720;51.958;4.540;2023-06-22T12:17:45;20.37;;;17.07;;
13303;SDS011;6720;51.958;4.540;2023-06-22T12:20:10;20.67;;;18.40;;
13303;SDS011;6720;51.958;4.540;2023-06-22T12:22:36;20.60;;;18.60;;
13303;SDS011;6720;51.958;4.540;2023-06-22T12:25:03;17.80;;;16.10;;
13303;SDS011;6720;51.958;4.540;2023-06-22T12:27:29;18.97;;;16.97;;
13303;SDS011;6720;51.958;4.540;2023-06-22T12:29:55;18.77;;;16.90;;
13303;SDS011;6720;51.958;4.540;2023-06-22T12:32:21;18.23;;;16.53;;
13303;SDS011;6720;51.958;4.540;2023-06-22T12:34:46;18.77;;;16.87;;
13303;SDS011;6720;51.958;4.540;2023-06-22T12:37:12;18.67;;;16.77;;
13303;SDS011;6720;51.958;4.540;2023-06-22T12:39:40;19.27;;;17.30;;
13303;SDS011;6720;51.958;4.540;2023-06-22T12:42:06;19.67;;;17.50;;
13303;SDS011;6720;51.958;4.540;2023-06-22T12:44:35;20.63;;;18.67;;
13303;SDS011;6720;51.958;4.540;2023-06-22T12:47:00;21.80;;;19.53;;
13303;SDS011;6720;51.958;4.540;2023-06-22T12:49:26;19.73;;;17.73;;
13303;SDS011;6720;51.958;4.540;2023-06-22T12:51:52;22.03;;;19.83;;
13303;SDS011;6720;51.958;4.540;2023-06-22T12:54:17;20.93;;;18.93;;
13303;SDS011;6720;51.958;4.540;2023-06-22T12:56:43;21.80;;;19.57;;
13303;SDS011;6720;51.958;4.540;2023-06-22T12:59:10;22.83;;;20.60;;
13303;SDS011;6720;51.958;4.540;2023-06-22T13:01:35;22.23;;;20.13;;
13303;SDS011;6720;51.958;4.540;2023-06-22T13:04:02;24.50;;;22.07;;
13303;SDS011;6720;51.958;4.540;2023-06-22T13:06:28;24.00;;;21.57;;
13303;SDS011;6720;51.958;4.540;2023-06-22T13:08:53;26.83;;;24.23;;
13303;SDS011;6720;51.958;4.540;2023-06-22T13:11:19;25.17;;;22.83;;
13303;SDS011;6720;51.958;4.540;2023-06-22T13:13:44;26.23;;;23.53;;
13303;SDS011;6720;51.958;4.540;2023-06-22T13:16:10;27.27;;;24.60;;
13303;SDS011;6720;51.958;4.540;2023-06-22T13:18:36;28.53;;;25.77;;
13303;SDS011;6720;51.958;4.540;2023-06-22T13:21:02;28.63;;;26.03;;
13303;SDS011;6720;51.958;4.540;2023-06-22T13:23:28;27.77;;;25.17;;
13303;SDS011;6720;51.958;4.540;2023-06-22T13:25:53;29.23;;;25.40;;
13303;SDS011;6720;51.958;4.540;2023-06-22T13:28:19;28.57;;;25.67;;
13303;SDS011;6720;51.958;4.540;2023-06-22T13:30:45;27.70;;;24.90;;
13303;SDS011;6720;51.958;4.540;2023-06-22T13:33:15;27.20;;;24.33;;
13303;SDS011;6720;51.958;4.540;2023-06-22T13:35:41;28.53;;;25.63;;
13303;SDS011;6720;51.958;4.540;2023-06-22T13:38:09;29.53;;;26.53;;
13303;SDS011;6720;51.958;4.540;2023-06-22T13:40:35;28.37;;;25.63;;
13303;SDS011;6720;51.958;4.540;2023-06-22T13:43:02;28.17;;;25.17;;
13303;SDS011;6720;51.958;4.540;2023-06-22T13:45:28;27.00;;;24.23;;
13303;SDS011;6720;51.958;4.540;2023-06-22T13:47:54;30.07;;;27.27;;
13303;SDS011;6720;51.958;4.540;2023-06-22T13:50:19;29.83;;;26.93;;
13303;SDS011;6720;51.958;4.540;2023-06-22T13:52:45;30.27;;;27.27;;
13303;SDS011;6720;51.958;4.540;2023-06-22T13:55:10;31.97;;;28.67;;
13303;SDS011;6720;51.958;4.540;2023-06-22T13:57:35;29.07;;;26.20;;
13303;SDS011;6720;51.958;4.540;2023-06-22T14:00:03;33.77;;;30.47;;
13303;SDS011;6720;51.958;4.540;2023-06-22T14:02:30;32.07;;;28.80;;
13303;SDS011;6720;51.958;4.540;2023-06-22T14:04:55;34.90;;;31.37;;
13303;SDS011;6720;51.958;4.540;2023-06-22T14:07:21;31.67;;;28.80;;
13303;SDS011;6720;51.958;4.540;2023-06-22T14:09:46;32.40;;;29.40;;
13303;SDS011;6720;51.958;4.540;2023-06-22T14:12:12;30.27;;;27.27;;
13303;SDS011;6720;51.958;4.540;2023-06-22T14:14:38;31.70;;;28.70;;
13303;SDS011;6720;51.958;4.540;2023-06-22T14:17:04;26.90;;;24.33;;
13303;SDS011;6720;51.958;4.540;2023-06-22T14:19:30;27.80;;;24.90;;
13303;SDS011;6720;51.958;4.540;2023-06-22T14:21:55;26.23;;;23.80;;
13303;SDS011;6720;51.958;4.540;2023-06-22T14:24:22;28.07;;;25.27;;
13303;SDS011;6720;51.958;4.540;2023-06-22T14:26:47;30.43;;;27.43;;
13303;SDS011;6720;51.958;4.540;2023-06-22T14:29:13;29.03;;;26.43;;
13303;SDS011;6720;51.958;4.540;2023-06-22T14:31:38;32.57;;;29.53;;
13303;SDS011;6720;51.958;4.540;2023-06-22T14:34:04;32.70;;;29.70;;
13303;SDS011;6720;51.958;4.540;2023-06-22T14:36:30;31.57;;;28.67;;
13303;SDS011;6720;51.958;4.540;2023-06-22T14:38:56;32.80;;;29.73;;
13303;SDS011;6720;51.958;4.540;2023-06-22T14:41:22;34.07;;;31.03;;
13303;SDS011;6720;51.958;4.540;2023-06-22T14:43:48;32.77;;;29.67;;
13303;SDS011;6720;51.958;4.540;2023-06-22T14:46:15;36.60;;;33.03;;